aviador You're here:

WIII Decoded Metar

JAKARTA in INDONESIA
Report Time2018-06-21 02:30:00
UTC Time2018-06-21 02:47:06
Flight Rules vfr VFR
Wind090° at 07 kt
W.Decomp.*RWY 07: 6.6 kt HW 2.4 kt RCW
W.Rank090° ranks 28
Current wind is above 090° avg. (6.5)
Visibility9999 m
Phenomena:N/A
Clouds:Few 020 Hf
Expected CloudBase > 3,200 ft AGL from Temp-Dew spread
CeilingNone
Temp31°C (ISA +16)
Dew Point23°C (62% RH)
Heat Index35.4°C
QNH1013 hPa
Density Alt2,231 ft
Elevation26 ft
Report Wrong Elevation
Raw Report
WIII 210230Z 09007KT 9999 FEW020 31/23 Q1013 NOSIG=

Extra information for WIII:More info

Metar Taf Metar & Taf Last 4 Metars F.Rules Stats Wind Profile Meteogram Temp Stats Airport Information Weather charts Add Link Nearby VenuesMetar ALERT Operation Metar Decoded Social comments